sensor_id;sensor_type;location;lat;lon;timestamp;pressure;altitude;pressure_sealevel;temperature;humidity
28456;BME280;15682;56.742;38.866;2023-04-06T00:01:42;100410.0;;;3.4;89.7
28456;BME280;15682;56.742;38.866;2023-04-06T00:03:42;100410.0;;;3.3;89.7
28456;BME280;15682;56.742;38.866;2023-04-06T00:05:42;100410.0;;;3.3;89.7
28456;BME280;15682;56.742;38.866;2023-04-06T00:07:42;100410.0;;;3.3;89.7
28456;BME280;15682;56.742;38.866;2023-04-06T00:09:42;100400.0;;;3.3;89.7
28456;BME280;15682;56.742;38.866;2023-04-06T00:11:42;100400.0;;;3.3;89.7
28456;BME280;15682;56.742;38.866;2023-04-06T00:13:42;100400.0;;;3.2;89.7
28456;BME280;15682;56.742;38.866;2023-04-06T00:15:42;100400.0;;;3.2;90.0
28456;BME280;15682;56.742;38.866;2023-04-06T00:17:42;100400.0;;;3.2;90.0
28456;BME280;15682;56.742;38.866;2023-04-06T00:19:41;100400.0;;;3.2;90.0
28456;BME280;15682;56.742;38.866;2023-04-06T00:21:41;100400.0;;;3.1;90.0
28456;BME280;15682;56.742;38.866;2023-04-06T00:23:41;100400.0;;;3.1;90.0
28456;BME280;15682;56.742;38.866;2023-04-06T00:25:41;100400.0;;;3.1;90.2
28456;BME280;15682;56.742;38.866;2023-04-06T00:27:41;100400.0;;;3.1;90.4
28456;BME280;15682;56.742;38.866;2023-04-06T00:29:41;100400.0;;;3.2;90.4
28456;BME280;15682;56.742;38.866;2023-04-06T00:31:41;100400.0;;;3.2;89.9
28456;BME280;15682;56.742;38.866;2023-04-06T00:33:41;100400.0;;;3.1;89.9
28456;BME280;15682;56.742;38.866;2023-04-06T00:35:41;100400.0;;;3.2;90.2
28456;BME280;15682;56.742;38.866;2023-04-06T00:37:41;100400.0;;;3.2;90.2
28456;BME280;15682;56.742;38.866;2023-04-06T00:39:42;100400.0;;;3.0;90.4
28456;BME280;15682;56.742;38.866;2023-04-06T00:41:43;100400.0;;;3.0;90.4
28456;BME280;15682;56.742;38.866;2023-04-06T00:43:41;100400.0;;;3.2;90.4
28456;BME280;15682;56.742;38.866;2023-04-06T00:45:42;100400.0;;;3.0;90.6
28456;BME280;15682;56.742;38.866;2023-04-06T00:47:41;100410.0;;;3.0;90.6
28456;BME280;15682;56.742;38.866;2023-04-06T00:49:41;100410.0;;;3.0;90.6
28456;BME280;15682;56.742;38.866;2023-04-06T00:51:41;100410.0;;;2.9;90.6
28456;BME280;15682;56.742;38.866;2023-04-06T00:53:41;100410.0;;;2.9;91.0
28456;BME280;15682;56.742;38.866;2023-04-06T00:55:41;100410.0;;;2.9;90.5
28456;BME280;15682;56.742;38.866;2023-04-06T00:57:41;100410.0;;;2.9;90.5
28456;BME280;15682;56.742;38.866;2023-04-06T00:59:41;100410.0;;;2.9;90.5
28456;BME280;15682;56.742;38.866;2023-04-06T01:01:41;100410.0;;;2.9;90.5
28456;BME280;15682;56.742;38.866;2023-04-06T01:03:41;100410.0;;;2.8;90.5
28456;BME280;15682;56.742;38.866;2023-04-06T01:05:41;100410.0;;;2.8;91.0
28456;BME280;15682;56.742;38.866;2023-04-06T01:07:41;100410.0;;;2.9;91.1
28456;BME280;15682;56.742;38.866;2023-04-06T01:09:41;100410.0;;;2.9;91.1
28456;BME280;15682;56.742;38.866;2023-04-06T01:11:41;100410.0;;;2.8;91.1
28456;BME280;15682;56.742;38.866;2023-04-06T01:13:40;100410.0;;;2.8;91.1
28456;BME280;15682;56.742;38.866;2023-04-06T01:15:41;100410.0;;;2.8;91.1
28456;BME280;15682;56.742;38.866;2023-04-06T01:17:40;100410.0;;;2.8;91.1
28456;BME280;15682;56.742;38.866;2023-04-06T01:19:40;100410.0;;;2.8;91.1
28456;BME280;15682;56.742;38.866;2023-04-06T01:21:41;100410.0;;;2.9;91.1
28456;BME280;15682;56.742;38.866;2023-04-06T01:23:42;100410.0;;;2.9;91.1
28456;BME280;15682;56.742;38.866;2023-04-06T01:25:40;100410.0;;;2.9;91.0
28456;BME280;15682;56.742;38.866;2023-04-06T01:27:40;100410.0;;;2.9;91.0
28456;BME280;15682;56.742;38.866;2023-04-06T01:29:40;100410.0;;;2.7;91.0
28456;BME280;15682;56.742;38.866;2023-04-06T01:31:40;100410.0;;;2.7;91.0
28456;BME280;15682;56.742;38.866;2023-04-06T01:33:40;100410.0;;;2.7;91.6
28456;BME280;15682;56.742;38.866;2023-04-06T01:35:40;100410.0;;;2.7;91.7
28456;BME280;15682;56.742;38.866;2023-04-06T01:37:40;100410.0;;;2.7;91.7
28456;BME280;15682;56.742;38.866;2023-04-06T01:39:40;100410.0;;;2.7;91.7
28456;BME280;15682;56.742;38.866;2023-04-06T01:41:40;100410.0;;;2.6;91.7
28456;BME280;15682;56.742;38.866;2023-04-06T01:43:40;100410.0;;;2.6;91.7
28456;BME280;15682;56.742;38.866;2023-04-06T01:45:40;100410.0;;;2.6;91.5
28456;BME280;15682;56.742;38.866;2023-04-06T01:47:40;100410.0;;;2.5;91.5
28456;BME280;15682;56.742;38.866;2023-04-06T01:49:40;100410.0;;;2.5;91.5
28456;BME280;15682;56.742;38.866;2023-04-06T01:51:39;100410.0;;;2.5;91.5
28456;BME280;15682;56.742;38.866;2023-04-06T01:53:39;100410.0;;;2.5;91.5
28456;BME280;15682;56.742;38.866;2023-04-06T01:55:39;100410.0;;;2.5;91.9
28456;BME280;15682;56.742;38.866;2023-04-06T01:57:39;100410.0;;;2.5;91.9
28456;BME280;15682;56.742;38.866;2023-04-06T01:59:39;100410.0;;;2.6;91.9
28456;BME280;15682;56.742;38.866;2023-04-06T02:01:39;100410.0;;;2.6;91.1
28456;BME280;15682;56.742;38.866;2023-04-06T02:03:39;100410.0;;;2.5;91.7
28456;BME280;15682;56.742;38.866;2023-04-06T02:05:39;100410.0;;;2.5;91.7
28456;BME280;15682;56.742;38.866;2023-04-06T02:07:39;100420.0;;;2.5;91.7
28456;BME280;15682;56.742;38.866;2023-04-06T02:09:39;100420.0;;;2.5;91.7
28456;BME280;15682;56.742;38.866;2023-04-06T02:11:39;100420.0;;;2.5;91.7
28456;BME280;15682;56.742;38.866;2023-04-06T02:13:39;100420.0;;;2.7;91.7
28456;BME280;15682;56.742;38.866;2023-04-06T02:15:39;100420.0;;;2.5;91.2
28456;BME280;15682;56.742;38.866;2023-04-06T02:17:39;100420.0;;;2.5;91.2
28456;BME280;15682;56.742;38.866;2023-04-06T02:19:39;100430.0;;;2.4;91.2
28456;BME280;15682;56.742;38.866;2023-04-06T02:21:38;100430.0;;;2.3;92.2
28456;BME280;15682;56.742;38.866;2023-04-06T02:23:39;100430.0;;;2.3;92.2
28456;BME280;15682;56.742;38.866;2023-04-06T02:25:39;100430.0;;;2.3;92.1
28456;BME280;15682;56.742;38.866;2023-04-06T02:27:38;100430.0;;;2.3;92.1
28456;BME280;15682;56.742;38.866;2023-04-06T02:29:38;100440.0;;;2.4;92.1
28456;BME280;15682;56.742;38.866;2023-04-06T02:31:38;100440.0;;;2.4;92.1
28456;BME280;15682;56.742;38.866;2023-04-06T02:33:38;100440.0;;;2.2;92.1
28456;BME280;15682;56.742;38.866;2023-04-06T02:35:38;100440.0;;;2.2;92.2
28456;BME280;15682;56.742;38.866;2023-04-06T02:37:38;100440.0;;;2.2;92.2
28456;BME280;15682;56.742;38.866;2023-04-06T02:39:38;100440.0;;;2.2;92.2
28456;BME280;15682;56.742;38.866;2023-04-06T02:41:38;100440.0;;;2.3;92.2
28456;BME280;15682;56.742;38.866;2023-04-06T02:43:38;100440.0;;;2.4;91.7
28456;BME280;15682;56.742;38.866;2023-04-06T02:45:38;100440.0;;;2.2;91.8
28456;BME280;15682;56.742;38.866;2023-04-06T02:47:38;100440.0;;;2.2;92.3
28456;BME280;15682;56.742;38.866;2023-04-06T02:49:38;100440.0;;;2.3;92.3
28456;BME280;15682;56.742;38.866;2023-04-06T02:51:38;100440.0;;;2.1;91.7
28456;BME280;15682;56.742;38.866;2023-04-06T02:53:38;100440.0;;;2.1;92.3
28456;BME280;15682;56.742;38.866;2023-04-06T02:55:37;100440.0;;;2.1;92.3
28456;BME280;15682;56.742;38.866;2023-04-06T02:57:37;100440.0;;;2.1;92.3
28456;BME280;15682;56.742;38.866;2023-04-06T02:59:37;100440.0;;;2.1;92.3
28456;BME280;15682;56.742;38.866;2023-04-06T03:01:37;100440.0;;;2.1;92.3
28456;BME280;15682;56.742;38.866;2023-04-06T03:03:37;100440.0;;;2.2;92.3
28456;BME280;15682;56.742;38.866;2023-04-06T03:05:37;100450.0;;;2.2;91.9
28456;BME280;15682;56.742;38.866;2023-04-06T03:07:37;100450.0;;;2.2;91.9
28456;BME280;15682;56.742;38.866;2023-04-06T03:09:37;100450.0;;;2.2;91.8
28456;BME280;15682;56.742;38.866;2023-04-06T03:11:37;100450.0;;;2.2;91.8
28456;BME280;15682;56.742;38.866;2023-04-06T03:13:37;100450.0;;;2.1;91.8
28456;BME280;15682;56.742;38.866;2023-04-06T03:15:37;100460.0;;;2.1;92.0
28456;BME280;15682;56.742;38.866;2023-04-06T03:17:37;100460.0;;;2.1;92.0
28456;BME280;15682;56.742;38.866;2023-04-06T03:19:37;100460.0;;;2.1;92.0
28456;BME280;15682;56.742;38.866;2023-04-06T03:21:37;100460.0;;;2.3;92.0
28456;BME280;15682;56.742;38.866;2023-04-06T03:23:36;100460.0;;;2.4;91.3
28456;BME280;15682;56.742;38.866;2023-04-06T03:25:36;100470.0;;;2.3;91.4
28456;BME280;15682;56.742;38.866;2023-04-06T03:27:36;100470.0;;;2.3;91.4
28456;BME280;15682;56.742;38.866;2023-04-06T03:29:36;100470.0;;;2.4;91.4
28456;BME280;15682;56.742;38.866;2023-04-06T03:31:36;100470.0;;;2.4;91.4
28456;BME280;15682;56.742;38.866;2023-04-06T03:33:37;100470.0;;;2.2;91.4
28456;BME280;15682;56.742;38.866;2023-04-06T03:35:36;100470.0;;;2.2;91.4
28456;BME280;15682;56.742;38.866;2023-04-06T03:37:36;100470.0;;;2.4;91.4
28456;BME280;15682;56.742;38.866;2023-04-06T03:39:36;100470.0;;;2.4;90.4
28456;BME280;15682;56.742;38.866;2023-04-06T03:41:36;100470.0;;;2.5;90.4
28456;BME280;15682;56.742;38.866;2023-04-06T03:43:36;100480.0;;;2.5;90.4
28456;BME280;15682;56.742;38.866;2023-04-06T03:45:36;100480.0;;;2.8;89.8
28456;BME280;15682;56.742;38.866;2023-04-06T03:47:36;100480.0;;;2.6;89.8
28456;BME280;15682;56.742;38.866;2023-04-06T03:49:36;100480.0;;;2.7;89.8
28456;BME280;15682;56.742;38.866;2023-04-06T03:51:36;100480.0;;;2.6;89.8
28456;BME280;15682;56.742;38.866;2023-04-06T03:53:36;100480.0;;;2.8;89.8
28456;BME280;15682;56.742;38.866;2023-04-06T03:55:36;100480.0;;;3.2;88.6
28456;BME280;15682;56.742;38.866;2023-04-06T03:57:36;100480.0;;;3.7;86.5
28456;BME280;15682;56.742;38.866;2023-04-06T03:59:35;100480.0;;;4.2;84.9
28456;BME280;15682;56.742;38.866;2023-04-06T04:01:36;100480.0;;;3.9;84.1
28456;BME280;15682;56.742;38.866;2023-04-06T04:03:36;100480.0;;;3.7;85.1
28456;BME280;15682;56.742;38.866;2023-04-06T04:05:36;100490.0;;;3.7;84.3
28456;BME280;15682;56.742;38.866;2023-04-06T04:07:36;100490.0;;;3.7;84.9
28456;BME280;15682;56.742;38.866;2023-04-06T04:09:36;100490.0;;;3.8;86.3
28456;BME280;15682;56.742;38.866;2023-04-06T04:11:36;100490.0;;;3.9;85.2
28456;BME280;15682;56.742;38.866;2023-04-06T04:13:36;100490.0;;;4.0;83.8
28456;BME280;15682;56.742;38.866;2023-04-06T04:15:36;100490.0;;;4.1;83.2
28456;BME280;15682;56.742;38.866;2023-04-06T04:17:36;100490.0;;;3.9;82.8
28456;BME280;15682;56.742;38.866;2023-04-06T04:19:36;100490.0;;;4.1;83.8
28456;BME280;15682;56.742;38.866;2023-04-06T04:21:42;100490.0;;;4.3;83.0
28456;BME280;15682;56.742;38.866;2023-04-06T04:23:36;100490.0;;;4.3;82.4
28456;BME280;15682;56.742;38.866;2023-04-06T04:25:36;100490.0;;;4.2;81.3
28456;BME280;15682;56.742;38.866;2023-04-06T04:27:37;100490.0;;;4.2;82.4
28456;BME280;15682;56.742;38.866;2023-04-06T04:29:37;100490.0;;;4.3;82.3
28456;BME280;15682;56.742;38.866;2023-04-06T04:31:37;100490.0;;;4.3;83.1
28456;BME280;15682;56.742;38.866;2023-04-06T04:33:37;100500.0;;;4.5;81.2
28456;BME280;15682;56.742;38.866;2023-04-06T04:35:37;100500.0;;;4.4;81.2
28456;BME280;15682;56.742;38.866;2023-04-06T04:37:38;100500.0;;;4.2;82.2
28456;BME280;15682;56.742;38.866;2023-04-06T04:39:38;100510.0;;;4.2;81.1
28456;BME280;15682;56.742;38.866;2023-04-06T04:41:38;100510.0;;;4.5;80.6
28456;BME280;15682;56.742;38.866;2023-04-06T04:43:38;100510.0;;;4.3;80.6
28456;BME280;15682;56.742;38.866;2023-04-06T04:45:38;100510.0;;;4.8;81.6
28456;BME280;15682;56.742;38.866;2023-04-06T04:47:38;100510.0;;;4.6;79.4
28456;BME280;15682;56.742;38.866;2023-04-06T04:49:39;100510.0;;;4.6;80.8
28456;BME280;15682;56.742;38.866;2023-04-06T04:51:39;100510.0;;;4.8;80.8
28456;BME280;15682;56.742;38.866;2023-04-06T04:53:39;100520.0;;;4.9;80.8
28456;BME280;15682;56.742;38.866;2023-04-06T04:55:39;100520.0;;;4.7;78.4
28456;BME280;15682;56.742;38.866;2023-04-06T04:57:40;100520.0;;;4.7;79.7
28456;BME280;15682;56.742;38.866;2023-04-06T04:59:40;100520.0;;;5.0;80.4
28456;BME280;15682;56.742;38.866;2023-04-06T05:01:40;100520.0;;;4.8;78.9
28456;BME280;15682;56.742;38.866;2023-04-06T05:03:40;100520.0;;;4.8;79.0
28456;BME280;15682;56.742;38.866;2023-04-06T05:05:40;100520.0;;;5.0;78.3
28456;BME280;15682;56.742;38.866;2023-04-06T05:07:41;100520.0;;;5.1;78.3
28456;BME280;15682;56.742;38.866;2023-04-06T05:09:41;100520.0;;;5.0;77.4
28456;BME280;15682;56.742;38.866;2023-04-06T05:11:41;100520.0;;;5.2;79.3
28456;BME280;15682;56.742;38.866;2023-04-06T05:13:41;100520.0;;;5.3;78.7
28456;BME280;15682;56.742;38.866;2023-04-06T05:15:42;100530.0;;;5.6;77.5
28456;BME280;15682;56.742;38.866;2023-04-06T05:17:42;100530.0;;;5.4;78.1
28456;BME280;15682;56.742;38.866;2023-04-06T05:19:42;100530.0;;;5.4;77.0
28456;BME280;15682;56.742;38.866;2023-04-06T05:21:42;100530.0;;;5.6;76.2
28456;BME280;15682;56.742;38.866;2023-04-06T05:23:42;100530.0;;;5.6;77.3
28456;BME280;15682;56.742;38.866;2023-04-06T05:25:43;100530.0;;;5.5;76.7
28456;BME280;15682;56.742;38.866;2023-04-06T05:27:43;100530.0;;;5.9;76.7
28456;BME280;15682;56.742;38.866;2023-04-06T05:29:43;100530.0;;;6.3;77.5
28456;BME280;15682;56.742;38.866;2023-04-06T05:31:43;100530.0;;;6.0;74.6
28456;BME280;15682;56.742;38.866;2023-04-06T05:33:43;100530.0;;;5.9;76.3
28456;BME280;15682;56.742;38.866;2023-04-06T05:35:44;100530.0;;;5.9;74.6
28456;BME280;15682;56.742;38.866;2023-04-06T05:37:44;100530.0;;;5.7;76.0
28456;BME280;15682;56.742;38.866;2023-04-06T05:39:44;100530.0;;;5.6;76.0
28456;BME280;15682;56.742;38.866;2023-04-06T05:41:44;100530.0;;;5.6;76.0
28456;BME280;15682;56.742;38.866;2023-04-06T05:43:45;100530.0;;;5.7;76.0
28456;BME280;15682;56.742;38.866;2023-04-06T05:45:45;100530.0;;;6.0;76.6
28456;BME280;15682;56.742;38.866;2023-04-06T05:47:45;100530.0;;;6.2;75.4
28456;BME280;15682;56.742;38.866;2023-04-06T05:49:46;100530.0;;;6.2;75.4
28456;BME280;15682;56.742;38.866;2023-04-06T05:51:46;100530.0;;;6.2;74.2
28456;BME280;15682;56.742;38.866;2023-04-06T05:53:46;100530.0;;;6.0;74.8
28456;BME280;15682;56.742;38.866;2023-04-06T05:55:47;100530.0;;;6.4;75.0
28456;BME280;15682;56.742;38.866;2023-04-06T05:57:47;100530.0;;;6.7;74.7
28456;BME280;15682;56.742;38.866;2023-04-06T05:59:47;100530.0;;;6.5;73.7
28456;BME280;15682;56.742;38.866;2023-04-06T06:01:48;100530.0;;;6.5;73.5
28456;BME280;15682;56.742;38.866;2023-04-06T06:03:48;100530.0;;;6.2;73.5
28456;BME280;15682;56.742;38.866;2023-04-06T06:05:48;100530.0;;;6.5;73.5
28456;BME280;15682;56.742;38.866;2023-04-06T06:07:49;100530.0;;;6.8;74.7
28456;BME280;15682;56.742;38.866;2023-04-06T06:09:49;100530.0;;;6.8;72.9
28456;BME280;15682;56.742;38.866;2023-04-06T06:11:49;100530.0;;;6.8;73.6
28456;BME280;15682;56.742;38.866;2023-04-06T06:13:50;100540.0;;;6.8;73.1
28456;BME280;15682;56.742;38.866;2023-04-06T06:15:50;100540.0;;;6.9;72.0
28456;BME280;15682;56.742;38.866;2023-04-06T06:17:50;100540.0;;;6.3;72.0
28456;BME280;15682;56.742;38.866;2023-04-06T06:19:50;100540.0;;;6.3;73.0
28456;BME280;15682;56.742;38.866;2023-04-06T06:21:51;100540.0;;;6.8;72.7
28456;BME280;15682;56.742;38.866;2023-04-06T06:23:51;100540.0;;;6.5;72.7
28456;BME280;15682;56.742;38.866;2023-04-06T06:25:51;100540.0;;;6.5;72.7
28456;BME280;15682;56.742;38.866;2023-04-06T06:27:52;100540.0;;;6.4;72.6
28456;BME280;15682;56.742;38.866;2023-04-06T06:29:52;100540.0;;;6.4;72.6
28456;BME280;15682;56.742;38.866;2023-04-06T06:31:53;100540.0;;;6.5;72.6
28456;BME280;15682;56.742;38.866;2023-04-06T06:33:53;100540.0;;;6.7;72.1
28456;BME280;15682;56.742;38.866;2023-04-06T06:35:53;100540.0;;;7.1;72.1
28456;BME280;15682;56.742;38.866;2023-04-06T06:37:54;100540.0;;;7.6;71.5
28456;BME280;15682;56.742;38.866;2023-04-06T06:39:54;100540.0;;;7.3;69.1
28456;BME280;15682;56.742;38.866;2023-04-06T06:41:54;100540.0;;;7.1;70.5
28456;BME280;15682;56.742;38.866;2023-04-06T06:43:55;100540.0;;;7.1;71.5
28456;BME280;15682;56.742;38.866;2023-04-06T06:45:55;100540.0;;;7.0;70.2
28456;BME280;15682;56.742;38.866;2023-04-06T06:47:55;100540.0;;;6.8;71.1
28456;BME280;15682;56.742;38.866;2023-04-06T06:49:56;100540.0;;;7.2;71.7
28456;BME280;15682;56.742;38.866;2023-04-06T06:51:56;100540.0;;;7.4;70.4
28456;BME280;15682;56.742;38.866;2023-04-06T06:53:56;100540.0;;;7.7;70.4
28456;BME280;15682;56.742;38.866;2023-04-06T06:55:57;100540.0;;;7.7;68.7
28456;BME280;15682;56.742;38.866;2023-04-06T06:57:57;100550.0;;;8.0;68.8
28456;BME280;15682;56.742;38.866;2023-04-06T06:59:57;100550.0;;;8.1;68.5
28456;BME280;15682;56.742;38.866;2023-04-06T07:01:58;100550.0;;;8.2;67.1
28456;BME280;15682;56.742;38.866;2023-04-06T07:03:58;100550.0;;;8.2;68.0
28456;BME280;15682;56.742;38.866;2023-04-06T07:05:59;100550.0;;;8.3;66.4
28456;BME280;15682;56.742;38.866;2023-04-06T07:07:59;100550.0;;;8.0;66.4
28456;BME280;15682;56.742;38.866;2023-04-06T07:09:59;100560.0;;;8.3;67.3
28456;BME280;15682;56.742;38.866;2023-04-06T07:11:59;100560.0;;;7.9;67.7
28456;BME280;15682;56.742;38.866;2023-04-06T07:13:59;100560.0;;;7.5;68.4
28456;BME280;15682;56.742;38.866;2023-04-06T07:16:00;100560.0;;;7.6;68.4
28456;BME280;15682;56.742;38.866;2023-04-06T07:18:00;100560.0;;;7.9;68.0
28456;BME280;15682;56.742;38.866;2023-04-06T07:20:00;100560.0;;;8.2;66.6
28456;BME280;15682;56.742;38.866;2023-04-06T07:22:00;100560.0;;;8.2;67.5
28456;BME280;15682;56.742;38.866;2023-04-06T07:24:01;100560.0;;;8.2;67.5
28456;BME280;15682;56.742;38.866;2023-04-06T07:26:01;100570.0;;;8.5;68.0
28456;BME280;15682;56.742;38.866;2023-04-06T07:28:02;100570.0;;;8.4;66.1
28456;BME280;15682;56.742;38.866;2023-04-06T07:30:01;100570.0;;;8.5;66.9
28456;BME280;15682;56.742;38.866;2023-04-06T07:32:01;100570.0;;;8.8;66.1
28456;BME280;15682;56.742;38.866;2023-04-06T07:34:01;100570.0;;;8.3;66.1
28456;BME280;15682;56.742;38.866;2023-04-06T07:36:01;100570.0;;;7.9;67.4
28456;BME280;15682;56.742;38.866;2023-04-06T07:38:02;100570.0;;;8.2;67.4
28456;BME280;15682;56.742;38.866;2023-04-06T07:40:02;100570.0;;;8.3;66.6
28456;BME280;15682;56.742;38.866;2023-04-06T07:42:02;100580.0;;;8.7;66.6
28456;BME280;15682;56.742;38.866;2023-04-06T07:44:02;100580.0;;;8.2;66.6
28456;BME280;15682;56.742;38.866;2023-04-06T07:46:02;100580.0;;;8.2;66.6
28456;BME280;15682;56.742;38.866;2023-04-06T07:48:02;100580.0;;;8.5;68.0
28456;BME280;15682;56.742;38.866;2023-04-06T07:50:03;100580.0;;;8.6;67.0
28456;BME280;15682;56.742;38.866;2023-04-06T07:52:03;100580.0;;;9.0;67.6
28456;BME280;15682;56.742;38.866;2023-04-06T07:54:03;100570.0;;;8.9;66.5
28456;BME280;15682;56.742;38.866;2023-04-06T07:56:02;100570.0;;;8.7;66.5
28456;BME280;15682;56.742;38.866;2023-04-06T07:58:03;100570.0;;;8.7;66.5
28456;BME280;15682;56.742;38.866;2023-04-06T08:00:03;100570.0;;;8.4;66.5
28456;BME280;15682;56.742;38.866;2023-04-06T08:02:03;100570.0;;;8.8;66.1
28456;BME280;15682;56.742;38.866;2023-04-06T08:04:03;100570.0;;;8.9;65.6
28456;BME280;15682;56.742;38.866;2023-04-06T08:06:03;100570.0;;;8.9;66.6
28456;BME280;15682;56.742;38.866;2023-04-06T08:08:03;100570.0;;;9.3;65.3
28456;BME280;15682;56.742;38.866;2023-04-06T08:10:04;100570.0;;;9.0;65.3
28456;BME280;15682;56.742;38.866;2023-04-06T08:12:03;100570.0;;;8.9;65.3
28456;BME280;15682;56.742;38.866;2023-04-06T08:14:03;100570.0;;;8.9;65.3
28456;BME280;15682;56.742;38.866;2023-04-06T08:16:04;100570.0;;;9.2;65.3
28456;BME280;15682;56.742;38.866;2023-04-06T08:18:04;100570.0;;;9.7;63.4
28456;BME280;15682;56.742;38.866;2023-04-06T08:20:04;100560.0;;;9.5;63.4
28456;BME280;15682;56.742;38.866;2023-04-06T08:22:04;100560.0;;;9.2;63.9
28456;BME280;15682;56.742;38.866;2023-04-06T08:24:05;100560.0;;;9.3;63.9
28456;BME280;15682;56.742;38.866;2023-04-06T08:26:04;100560.0;;;9.2;62.9
28456;BME280;15682;56.742;38.866;2023-04-06T08:28:05;100560.0;;;9.4;62.9
28456;BME280;15682;56.742;38.866;2023-04-06T08:30:05;100560.0;;;9.7;62.2
28456;BME280;15682;56.742;38.866;2023-04-06T08:32:04;100560.0;;;9.5;61.5
28456;BME280;15682;56.742;38.866;2023-04-06T08:34:05;100560.0;;;9.5;61.5
28456;BME280;15682;56.742;38.866;2023-04-06T08:36:09;100560.0;;;9.9;60.9
28456;BME280;15682;56.742;38.866;2023-04-06T08:38:05;100560.0;;;9.9;59.5
28456;BME280;15682;56.742;38.866;2023-04-06T08:40:06;100560.0;;;9.2;60.4
28456;BME280;15682;56.742;38.866;2023-04-06T08:42:11;100560.0;;;9.3;60.4
28456;BME280;15682;56.742;38.866;2023-04-06T08:44:05;100560.0;;;9.4;60.4
28456;BME280;15682;56.742;38.866;2023-04-06T08:46:05;100560.0;;;9.6;60.1
28456;BME280;15682;56.742;38.866;2023-04-06T08:48:05;100560.0;;;9.6;57.5
28456;BME280;15682;56.742;38.866;2023-04-06T08:50:07;100560.0;;;9.5;58.2
28456;BME280;15682;56.742;38.866;2023-04-06T08:52:06;100560.0;;;9.7;59.1
28456;BME280;15682;56.742;38.866;2023-04-06T08:54:05;100560.0;;;9.9;57.7
28456;BME280;15682;56.742;38.866;2023-04-06T08:56:06;100560.0;;;10.1;57.9
28456;BME280;15682;56.742;38.866;2023-04-06T08:58:06;100560.0;;;10.1;57.4
28456;BME280;15682;56.742;38.866;2023-04-06T09:00:09;100560.0;;;9.9;56.6
28456;BME280;15682;56.742;38.866;2023-04-06T09:02:06;100560.0;;;9.6;57.1
28456;BME280;15682;56.742;38.866;2023-04-06T09:04:07;100560.0;;;9.7;57.0
28456;BME280;15682;56.742;38.866;2023-04-06T09:06:07;100560.0;;;9.7;57.6
28456;BME280;15682;56.742;38.866;2023-04-06T09:08:06;100560.0;;;9.7;56.8
28456;BME280;15682;56.742;38.866;2023-04-06T09:10:07;100560.0;;;9.5;56.8
28456;BME280;15682;56.742;38.866;2023-04-06T09:12:06;100560.0;;;9.7;56.8
28456;BME280;15682;56.742;38.866;2023-04-06T09:14:06;100550.0;;;9.7;56.8
28456;BME280;15682;56.742;38.866;2023-04-06T09:16:07;100550.0;;;9.8;57.3
28456;BME280;15682;56.742;38.866;2023-04-06T09:18:07;100550.0;;;9.9;57.3
28456;BME280;15682;56.742;38.866;2023-04-06T09:20:07;100550.0;;;9.6;56.6
28456;BME280;15682;56.742;38.866;2023-04-06T09:22:07;100550.0;;;10.0;57.2
28456;BME280;15682;56.742;38.866;2023-04-06T09:24:08;100550.0;;;10.2;57.2
28456;BME280;15682;56.742;38.866;2023-04-06T09:26:09;100550.0;;;10.0;56.0
28456;BME280;15682;56.742;38.866;2023-04-06T09:28:07;100550.0;;;10.0;55.3
28456;BME280;15682;56.742;38.866;2023-04-06T09:30:09;100550.0;;;10.0;56.3
28456;BME280;15682;56.742;38.866;2023-04-06T09:32:08;100540.0;;;10.2;56.3
28456;BME280;15682;56.742;38.866;2023-04-06T09:34:20;100540.0;;;18.7;34.1
28456;BME280;15682;56.742;38.866;2023-04-06T09:34:31;100540.0;;;10.2;56.2
28456;BME280;15682;56.742;38.866;2023-04-06T09:35:05;100540.0;;;10.3;55.5
28456;BME280;15682;56.742;38.866;2023-04-06T09:35:07;100540.0;;;10.3;55.5
28456;BME280;15682;56.742;38.866;2023-04-06T09:36:08;100540.0;;;10.3;55.5
28456;BME280;15682;56.742;38.866;2023-04-06T09:38:11;100540.0;;;10.2;56.3
28456;BME280;15682;56.742;38.866;2023-04-06T09:40:08;100540.0;;;10.3;56.3
28456;BME280;15682;56.742;38.866;2023-04-06T09:42:08;100540.0;;;10.2;55.1
28456;BME280;15682;56.742;38.866;2023-04-06T09:44:09;100540.0;;;10.4;55.6
28456;BME280;15682;56.742;38.866;2023-04-06T09:46:08;100540.0;;;10.2;55.7
28456;BME280;15682;56.742;38.866;2023-04-06T09:48:08;100540.0;;;10.1;55.1
28456;BME280;15682;56.742;38.866;2023-04-06T09:50:10;100540.0;;;10.2;55.1
28456;BME280;15682;56.742;38.866;2023-04-06T09:52:11;100540.0;;;10.2;55.1
28456;BME280;15682;56.742;38.866;2023-04-06T09:54:09;100540.0;;;9.9;55.7
28456;BME280;15682;56.742;38.866;2023-04-06T09:56:12;100540.0;;;9.9;56.4
28456;BME280;15682;56.742;38.866;2023-04-06T09:58:10;100540.0;;;10.1;56.4
28456;BME280;15682;56.742;38.866;2023-04-06T10:00:11;100540.0;;;10.1;55.9
28456;BME280;15682;56.742;38.866;2023-04-06T10:02:16;100540.0;;;10.1;55.4
28456;BME280;15682;56.742;38.866;2023-04-06T10:04:19;100540.0;;;10.3;55.5
28456;BME280;15682;56.742;38.866;2023-04-06T10:06:11;100540.0;;;10.0;55.3
28456;BME280;15682;56.742;38.866;2023-04-06T10:08:10;100540.0;;;10.2;55.3
28456;BME280;15682;56.742;38.866;2023-04-06T10:10:10;100540.0;;;10.2;55.3
28456;BME280;15682;56.742;38.866;2023-04-06T10:12:10;100540.0;;;10.3;54.7
28456;BME280;15682;56.742;38.866;2023-04-06T10:14:10;100540.0;;;10.3;54.5
28456;BME280;15682;56.742;38.866;2023-04-06T10:16:10;100540.0;;;10.3;55.2
28456;BME280;15682;56.742;38.866;2023-04-06T10:18:10;100540.0;;;10.2;55.2
28456;BME280;15682;56.742;38.866;2023-04-06T10:20:14;100540.0;;;10.1;56.2
28456;BME280;15682;56.742;38.866;2023-04-06T10:22:12;100540.0;;;10.0;55.6
28456;BME280;15682;56.742;38.866;2023-04-06T10:24:10;100540.0;;;10.0;55.4
28456;BME280;15682;56.742;38.866;2023-04-06T10:26:13;100540.0;;;10.1;55.4
28456;BME280;15682;56.742;38.866;2023-04-06T10:28:11;100540.0;;;10.2;55.4
28456;BME280;15682;56.742;38.866;2023-04-06T10:30:11;100530.0;;;10.2;54.8
28456;BME280;15682;56.742;38.866;2023-04-06T10:32:11;100530.0;;;10.4;55.7
28456;BME280;15682;56.742;38.866;2023-04-06T10:34:11;100530.0;;;10.4;55.0
28456;BME280;15682;56.742;38.866;2023-04-06T10:36:12;100530.0;;;10.2;54.1
28456;BME280;15682;56.742;38.866;2023-04-06T10:38:12;100530.0;;;10.4;55.1
28456;BME280;15682;56.742;38.866;2023-04-06T10:40:18;100530.0;;;10.4;54.5
28456;BME280;15682;56.742;38.866;2023-04-06T10:42:11;100530.0;;;10.6;54.4
28456;BME280;15682;56.742;38.866;2023-04-06T10:44:20;100530.0;;;10.5;53.4
28456;BME280;15682;56.742;38.866;2023-04-06T10:46:12;100530.0;;;10.5;54.3